createdAt,value
2017-01-30T00:00:24.213Z,5.38
2017-01-30T00:01:04.704Z,5.49
2017-01-30T00:01:45.204Z,5.51
2017-01-30T00:02:25.710Z,5.57
2017-01-30T00:03:06.200Z,5.46
2017-01-30T00:03:46.735Z,5.39
2017-01-30T00:04:27.203Z,5.31
2017-01-30T00:05:07.688Z,5.35
2017-01-30T00:05:48.229Z,5.42
2017-01-30T00:06:28.694Z,5.49
2017-01-30T00:07:09.201Z,5.6
2017-01-30T00:07:49.886Z,5.67
2017-01-30T00:08:30.374Z,5.64
2017-01-30T00:09:10.893Z,5.68
2017-01-30T00:09:51.381Z,5.71
2017-01-30T00:10:31.840Z,5.63
2017-01-30T00:11:12.342Z,5.49
2017-01-30T00:11:52.844Z,5.49
2017-01-30T00:12:33.312Z,5.58
2017-01-30T00:13:13.870Z,5.58
2017-01-30T00:13:54.342Z,5.45
2017-01-30T00:14:34.832Z,5.45
2017-01-30T00:15:15.311Z,5.56
2017-01-30T00:15:55.804Z,5.51
2017-01-30T00:16:36.315Z,5.46
2017-01-30T00:17:16.797Z,5.54
2017-01-30T00:17:57.318Z,5.63
2017-01-30T00:18:37.799Z,5.58
2017-01-30T00:19:18.300Z,5.43
2017-01-30T00:19:58.829Z,5.48
2017-01-30T00:20:39.307Z,5.45
2017-01-30T00:21:19.817Z,5.43
2017-01-30T00:22:00.312Z,5.43
2017-01-30T00:22:40.818Z,5.39
2017-01-30T00:23:21.285Z,5.4
2017-01-30T00:24:01.815Z,5.3
2017-01-30T00:24:42.281Z,5.31
2017-01-30T00:25:22.818Z,5.43
2017-01-30T00:26:03.280Z,5.45
2017-01-30T00:26:43.754Z,5.49
2017-01-30T00:27:24.277Z,5.46
2017-01-30T00:28:04.764Z,5.49
2017-01-30T00:28:45.231Z,5.58
2017-01-30T00:29:25.765Z,5.68
2017-01-30T00:30:06.240Z,5.65
2017-01-30T00:30:46.792Z,5.74
2017-01-30T00:31:27.220Z,5.75
2017-01-30T00:32:07.733Z,5.53
2017-01-30T00:32:48.201Z,5.46
2017-01-30T00:33:28.716Z,5.51
2017-01-30T00:34:09.225Z,5.6
2017-01-30T00:34:49.733Z,5.71
2017-01-30T00:35:30.171Z,5.76
2017-01-30T00:36:10.646Z,5.56
2017-01-30T00:36:51.182Z,5.57
2017-01-30T00:37:31.657Z,5.56
2017-01-30T00:38:12.149Z,5.39
2017-01-30T00:38:52.615Z,5.38
2017-01-30T00:39:33.092Z,5.39
2017-01-30T00:40:13.573Z,5.35
2017-01-30T00:40:54.063Z,5.31
2017-01-30T00:41:34.554Z,5.21
2017-01-30T00:42:15.033Z,5.2
2017-01-30T00:42:55.532Z,5.18
2017-01-30T00:43:36.001Z,5.33
2017-01-30T00:44:16.548Z,5.33
2017-01-30T00:44:57.017Z,5.2
2017-01-30T00:45:37.468Z,5.27
2017-01-30T00:46:18.006Z,5.31
2017-01-30T00:46:58.482Z,5.4
2017-01-30T00:47:38.953Z,5.22
2017-01-30T00:48:19.430Z,5.27
2017-01-30T00:48:59.903Z,5.31
2017-01-30T00:49:40.376Z,5.39
2017-01-30T00:50:20.892Z,5.4
2017-01-30T00:51:01.390Z,5.38
2017-01-30T00:51:41.831Z,5.45
2017-01-30T00:52:22.307Z,5.46
2017-01-30T00:53:02.806Z,5.58
2017-01-30T00:53:43.261Z,5.58
2017-01-30T00:54:23.743Z,5.46
2017-01-30T00:55:04.262Z,5.42
2017-01-30T00:55:44.710Z,5.27
2017-01-30T00:56:25.222Z,5.36
2017-01-30T00:57:05.704Z,5.3
2017-01-30T00:57:46.179Z,5.36
2017-01-30T00:58:26.711Z,5.39
2017-01-30T00:59:07.210Z,5.36
2017-01-30T00:59:47.643Z,5.49
2017-01-30T01:00:28.148Z,5.54
2017-01-30T01:01:08.698Z,5.61
2017-01-30T01:01:49.183Z,5.54
2017-01-30T01:02:29.667Z,5.6
2017-01-30T01:03:10.136Z,5.57
2017-01-30T01:03:50.618Z,5.64
2017-01-30T01:04:31.126Z,5.71
2017-01-30T01:05:11.637Z,5.72
2017-01-30T01:05:52.092Z,5.71
2017-01-30T01:06:32.626Z,5.56
2017-01-30T01:07:13.095Z,5.67
2017-01-30T01:07:53.587Z,5.64
2017-01-30T01:08:34.086Z,5.6
2017-01-30T01:09:14.568Z,5.64
2017-01-30T01:09:55.098Z,5.56
2017-01-30T01:10:35.604Z,5.61
2017-01-30T01:11:16.075Z,5.72
2017-01-30T01:11:56.616Z,5.79
2017-01-30T01:12:37.082Z,5.86
2017-01-30T01:13:17.592Z,5.64
2017-01-30T01:13:58.097Z,5.6
2017-01-30T01:14:38.570Z,5.56
2017-01-30T01:15:19.019Z,5.54
2017-01-30T01:15:59.582Z,5.58
2017-01-30T01:16:40.038Z,5.57
2017-01-30T01:17:20.502Z,5.49
2017-01-30T01:18:00.988Z,5.63
2017-01-30T01:18:41.494Z,5.45
2017-01-30T01:19:22.015Z,5.53
2017-01-30T01:20:02.500Z,5.6
2017-01-30T01:20:42.998Z,5.61
2017-01-30T01:21:23.511Z,5.63
2017-01-30T01:22:03.968Z,5.56
2017-01-30T01:22:44.475Z,5.48
2017-01-30T01:23:24.989Z,5.49
2017-01-30T01:24:05.432Z,5.56
2017-01-30T01:24:45.977Z,5.6
2017-01-30T01:25:26.476Z,5.58
2017-01-30T01:26:06.941Z,5.48
2017-01-30T01:26:47.478Z,5.51
2017-01-30T01:27:27.931Z,5.54
2017-01-30T01:28:08.418Z,5.49
2017-01-30T01:28:48.911Z,5.31
2017-01-30T01:29:29.394Z,5.36
2017-01-30T01:30:09.953Z,5.49
2017-01-30T01:30:50.429Z,5.51
2017-01-30T01:31:30.904Z,5.57
2017-01-30T01:32:11.359Z,5.61
2017-01-30T01:32:51.850Z,5.6
2017-01-30T01:33:32.332Z,5.61
2017-01-30T01:34:12.819Z,5.54
2017-01-30T01:34:53.299Z,5.46
2017-01-30T01:35:33.805Z,5.53
2017-01-30T01:36:14.273Z,5.51
2017-01-30T01:36:54.789Z,5.4
2017-01-30T01:37:35.265Z,5.4
2017-01-30T01:38:15.747Z,5.43
2017-01-30T01:38:56.283Z,5.45
2017-01-30T01:39:36.741Z,5.39
2017-01-30T01:40:17.268Z,5.27
2017-01-30T01:40:57.801Z,5.31
2017-01-30T01:41:38.346Z,5.28
2017-01-30T01:42:18.803Z,5.3
2017-01-30T01:42:59.258Z,5.3
2017-01-30T01:43:39.782Z,5.25
2017-01-30T01:44:20.255Z,5.18
2017-01-30T01:45:00.725Z,5.2
2017-01-30T01:45:41.224Z,5.12
2017-01-30T01:46:21.704Z,5.1
2017-01-30T01:47:02.178Z,5.2
2017-01-30T01:47:42.658Z,5.35
2017-01-30T01:48:23.162Z,5.33
2017-01-30T01:49:03.613Z,5.36
2017-01-30T01:49:44.134Z,5.43
2017-01-30T01:50:24.617Z,5.24
2017-01-30T01:51:05.085Z,5.31
2017-01-30T01:51:45.587Z,5.24
2017-01-30T01:52:26.066Z,5.25
2017-01-30T01:53:06.575Z,5.21
2017-01-30T01:53:47.151Z,5.24
2017-01-30T01:54:27.552Z,5.46
2017-01-30T01:55:08.043Z,5.45
2017-01-30T01:55:48.533Z,5.42
2017-01-30T01:56:29.072Z,5.39
2017-01-30T01:57:09.568Z,5.31
2017-01-30T01:57:50.076Z,5.24
2017-01-30T01:58:30.508Z,5.3
2017-01-30T01:59:10.999Z,5.36
2017-01-30T01:59:51.527Z,5.22
2017-01-30T02:00:32.003Z,5.42
2017-01-30T02:01:12.481Z,5.46
2017-01-30T02:01:52.964Z,5.42
2017-01-30T02:02:33.458Z,5.25
2017-01-30T02:03:13.953Z,5.27
2017-01-30T02:03:54.436Z,5.25
2017-01-30T02:04:34.929Z,5.25
2017-01-30T02:05:15.414Z,5.4
2017-01-30T02:05:55.900Z,5.33
2017-01-30T02:06:36.396Z,5.36
2017-01-30T02:07:16.914Z,5.27
2017-01-30T02:07:57.388Z,5.24
2017-01-30T02:08:37.896Z,5.33
2017-01-30T02:09:18.378Z,5.27
2017-01-30T02:09:58.876Z,5.25
2017-01-30T02:10:39.380Z,5.33
2017-01-30T02:11:19.859Z,5.2
2017-01-30T02:12:00.398Z,5.28
2017-01-30T02:12:40.853Z,5.3
2017-01-30T02:13:21.383Z,5.28
2017-01-30T02:14:01.863Z,5.18
2017-01-30T02:14:42.312Z,5.24
2017-01-30T02:15:22.829Z,5.22
2017-01-30T02:16:03.299Z,5.43
2017-01-30T02:16:43.791Z,5.35
2017-01-30T02:17:24.341Z,5.31
2017-01-30T02:18:04.815Z,5.35
2017-01-30T02:18:45.266Z,5.24
2017-01-30T02:19:25.760Z,5.4
2017-01-30T02:20:06.264Z,5.35
2017-01-30T02:20:46.737Z,5.38
2017-01-30T02:21:27.191Z,5.38
2017-01-30T02:22:07.683Z,5.46
2017-01-30T02:22:48.168Z,5.43
2017-01-30T02:23:28.686Z,5.39
2017-01-30T02:24:09.170Z,5.35
2017-01-30T02:24:49.697Z,5.4
2017-01-30T02:25:30.177Z,5.28
2017-01-30T02:26:10.665Z,5.36
2017-01-30T02:26:51.118Z,5.31
2017-01-30T02:27:31.630Z,5.39
2017-01-30T02:28:12.091Z,5.4
2017-01-30T02:28:52.606Z,5.28
2017-01-30T02:29:33.058Z,5.31
2017-01-30T02:31:30.726Z,5.24
2017-01-30T02:32:11.221Z,5.21
2017-01-30T02:32:51.732Z,5.31
2017-01-30T02:33:32.218Z,5.3
2017-01-30T02:34:12.721Z,5.33
2017-01-30T02:34:53.323Z,5.33
2017-01-30T02:35:33.748Z,5.36
2017-01-30T02:36:14.244Z,5.18
2017-01-30T02:36:54.760Z,5.3
2017-01-30T02:37:35.360Z,5.28
2017-01-30T02:38:15.834Z,5.27
2017-01-30T02:38:56.362Z,5.2
2017-01-30T02:39:36.828Z,5.31
2017-01-30T02:40:17.357Z,5.36
2017-01-30T02:40:57.815Z,5.17
2017-01-30T02:41:38.310Z,5.38
2017-01-30T02:42:18.773Z,5.31
2017-01-30T02:42:59.296Z,5.28
2017-01-30T02:43:39.794Z,5.33
2017-01-30T02:44:20.262Z,5.22
2017-01-30T02:45:00.730Z,5.27
2017-01-30T02:45:41.251Z,5.27
2017-01-30T02:46:21.743Z,5.33
2017-01-30T02:47:02.186Z,5.22
2017-01-30T02:47:42.702Z,5.24
2017-01-30T02:48:23.186Z,5.33
2017-01-30T02:50:16.289Z,5.39
2017-01-30T02:50:56.752Z,5.3
2017-01-30T02:51:37.252Z,5.4
2017-01-30T02:52:17.743Z,5.42
2017-01-30T02:52:58.248Z,5.4
2017-01-30T02:53:38.760Z,5.33
2017-01-30T02:54:19.228Z,5.39
2017-01-30T02:54:59.715Z,5.36
2017-01-30T02:55:40.325Z,5.38
2017-01-30T02:56:20.828Z,5.36
2017-01-30T02:57:01.348Z,5.27
2017-01-30T02:57:41.870Z,5.35
2017-01-30T02:58:22.308Z,5.33
2017-01-30T02:59:02.800Z,5.33
2017-01-30T02:59:43.293Z,5.38
2017-01-30T03:00:23.765Z,5.43
2017-01-30T03:01:04.283Z,5.49
2017-01-30T03:01:44.773Z,5.49
2017-01-30T03:02:25.304Z,5.53
2017-01-30T03:03:05.792Z,5.49
2017-01-30T03:03:46.311Z,5.48
2017-01-30T03:04:26.790Z,5.53
2017-01-30T03:05:07.309Z,5.48
2017-01-30T03:05:47.824Z,5.57
2017-01-30T03:06:28.298Z,5.63
2017-01-30T03:07:08.830Z,5.49
2017-01-30T03:07:49.347Z,5.6
2017-01-30T03:08:29.799Z,5.51
2017-01-30T03:09:10.278Z,5.57
2017-01-30T03:09:50.770Z,5.54
2017-01-30T03:10:31.284Z,5.43
2017-01-30T03:11:11.782Z,5.46
2017-01-30T03:11:52.296Z,5.35
2017-01-30T03:12:32.770Z,5.39
2017-01-30T03:13:13.275Z,5.38
2017-01-30T03:13:53.762Z,5.43
2017-01-30T03:14:34.297Z,5.42
2017-01-30T03:15:14.752Z,5.48
2017-01-30T03:15:55.239Z,5.48
2017-01-30T03:16:35.748Z,5.57
2017-01-30T03:17:16.222Z,5.74
2017-01-30T03:17:56.717Z,5.78
2017-01-30T03:18:37.211Z,5.71
2017-01-30T03:19:17.729Z,5.76
2017-01-30T03:19:58.194Z,5.67
2017-01-30T03:20:38.656Z,5.65
2017-01-30T03:21:19.148Z,5.81
2017-01-30T03:21:59.647Z,5.67
2017-01-30T03:22:40.136Z,5.82
2017-01-30T03:23:20.646Z,5.83
2017-01-30T03:24:01.150Z,5.65
2017-01-30T03:24:41.642Z,5.56
2017-01-30T03:25:22.107Z,5.71
2017-01-30T03:26:02.627Z,5.74
2017-01-30T03:26:43.143Z,5.71
2017-01-30T03:27:23.624Z,5.72
2017-01-30T03:28:04.101Z,5.81
2017-01-30T03:28:44.628Z,5.64
2017-01-30T03:29:25.083Z,5.86
2017-01-30T03:30:05.616Z,5.71
2017-01-30T03:30:46.093Z,5.64
2017-01-30T03:31:26.557Z,5.78
2017-01-30T03:32:07.087Z,5.85
2017-01-30T03:32:47.564Z,5.74
2017-01-30T03:33:28.044Z,5.91
2017-01-30T03:34:08.489Z,5.72
2017-01-30T03:34:48.984Z,5.6
2017-01-30T03:35:29.488Z,5.75
2017-01-30T03:36:09.994Z,5.78
2017-01-30T03:36:50.467Z,5.82
2017-01-30T03:37:31.257Z,5.64
2017-01-30T03:38:11.714Z,5.74
2017-01-30T03:38:52.210Z,5.65
2017-01-30T03:39:32.728Z,5.57
2017-01-30T03:40:13.201Z,5.46
2017-01-30T03:40:53.799Z,5.61
2017-01-30T03:41:34.246Z,5.74
2017-01-30T03:42:14.751Z,5.78
2017-01-30T03:42:55.359Z,5.86
2017-01-30T03:43:35.886Z,5.78
2017-01-30T03:44:16.359Z,5.68
2017-01-30T03:44:56.836Z,5.72
2017-01-30T03:45:37.346Z,5.68
2017-01-30T03:46:17.812Z,5.78
2017-01-30T03:46:58.975Z,5.74
2017-01-30T03:47:38.805Z,5.75
2017-01-30T03:48:19.284Z,5.72
2017-01-30T03:48:59.750Z,5.79
2017-01-30T03:49:40.222Z,5.63
2017-01-30T03:50:20.738Z,5.72
2017-01-30T03:51:01.241Z,5.63
2017-01-30T03:51:41.728Z,5.67
2017-01-30T03:52:22.187Z,5.64
2017-01-30T03:53:02.686Z,5.76
2017-01-30T03:53:43.170Z,5.91
2017-01-30T03:54:23.748Z,5.83
2017-01-30T03:55:04.216Z,5.97
2017-01-30T03:55:44.694Z,5.85
2017-01-30T03:56:25.207Z,5.85
2017-01-30T03:57:05.667Z,6
2017-01-30T03:57:46.161Z,5.89
2017-01-30T03:58:26.635Z,5.82
2017-01-30T03:59:07.153Z,5.89
2017-01-30T03:59:47.623Z,5.91
2017-01-30T04:00:28.116Z,6.09
2017-01-30T04:01:08.724Z,6.04
2017-01-30T04:01:49.167Z,6.14
2017-01-30T04:02:29.689Z,6.15
2017-01-30T04:03:10.177Z,6.22
2017-01-30T04:03:50.638Z,6.17
2017-01-30T04:04:31.129Z,6.25
2017-01-30T04:05:11.608Z,6.15
2017-01-30T04:05:52.079Z,6.14
2017-01-30T04:06:32.556Z,6.03
2017-01-30T04:07:13.052Z,5.89
2017-01-30T04:07:53.532Z,5.85
2017-01-30T04:08:34.040Z,5.9
2017-01-30T04:09:14.503Z,5.9
2017-01-30T04:09:54.972Z,5.75
2017-01-30T04:10:35.444Z,5.72
2017-01-30T04:11:15.989Z,5.76
2017-01-30T04:11:56.421Z,5.86
2017-01-30T04:12:36.920Z,5.99
2017-01-30T04:13:17.447Z,6.11
2017-01-30T04:13:57.950Z,6.17
2017-01-30T04:14:38.406Z,6.15
2017-01-30T04:15:18.922Z,6.22
2017-01-30T04:15:59.369Z,6.19
2017-01-30T04:16:39.863Z,6.19
2017-01-30T04:17:20.360Z,6.11
2017-01-30T04:18:00.851Z,6.11
2017-01-30T04:18:41.331Z,6.11
2017-01-30T04:19:21.848Z,5.97
2017-01-30T04:20:02.292Z,5.96
2017-01-30T04:20:42.798Z,5.97
2017-01-30T04:21:23.258Z,6.01
2017-01-30T04:22:03.747Z,6.03
2017-01-30T04:22:44.220Z,6.08
2017-01-30T04:23:24.693Z,6.14
2017-01-30T04:24:05.223Z,6.21
2017-01-30T04:24:45.681Z,6.18
2017-01-30T04:25:26.163Z,6.12
2017-01-30T04:26:06.647Z,5.94
2017-01-30T04:26:47.172Z,6
2017-01-30T04:27:27.650Z,6.03
2017-01-30T04:28:08.169Z,5.91
2017-01-30T04:28:48.643Z,6
2017-01-30T04:29:29.148Z,6.06
2017-01-30T04:30:09.682Z,5.96
2017-01-30T04:30:50.164Z,5.91
2017-01-30T04:31:30.643Z,5.85
2017-01-30T04:32:11.128Z,5.79
2017-01-30T04:32:51.547Z,5.85
2017-01-30T04:33:32.023Z,5.86
2017-01-30T04:34:12.521Z,6.01
2017-01-30T04:34:53.036Z,5.97
2017-01-30T04:35:33.518Z,6.14
2017-01-30T04:36:13.996Z,6.15
2017-01-30T04:36:54.472Z,6.18
2017-01-30T04:37:34.938Z,6.12
2017-01-30T04:38:15.421Z,6.09
2017-01-30T04:38:55.898Z,6.12
2017-01-30T04:39:36.390Z,6.18
2017-01-30T04:40:16.908Z,6.18
2017-01-30T04:40:57.359Z,6.08
2017-01-30T04:41:37.848Z,6.21
2017-01-30T04:42:18.348Z,6.21
2017-01-30T04:42:58.838Z,6.28
2017-01-30T04:43:39.300Z,6.28
2017-01-30T04:44:19.776Z,6.27
2017-01-30T04:45:00.286Z,6.18
2017-01-30T04:45:40.778Z,6.21
2017-01-30T04:46:21.261Z,6.22
2017-01-30T04:47:01.773Z,6.33
2017-01-30T04:47:42.273Z,6.36
2017-01-30T04:48:22.771Z,6.27
2017-01-30T04:49:03.246Z,6.3
2017-01-30T04:49:43.735Z,6.06
2017-01-30T04:50:24.209Z,6.06
2017-01-30T04:51:04.716Z,6.22
2017-01-30T04:51:45.231Z,6.25
2017-01-30T04:52:25.696Z,6.34
2017-01-30T04:53:06.172Z,6.25
2017-01-30T04:53:46.663Z,6.22
2017-01-30T04:54:27.159Z,6.28
2017-01-30T04:55:07.621Z,6.36
2017-01-30T04:55:48.149Z,6.37
2017-01-30T04:56:28.634Z,6.37
2017-01-30T04:57:09.201Z,6.3
2017-01-30T04:57:49.671Z,6.33
2017-01-30T04:58:30.164Z,6.22
2017-01-30T04:59:10.634Z,6.27
2017-01-30T04:59:51.155Z,6.22
2017-01-30T05:00:31.619Z,6.22
2017-01-30T05:01:12.086Z,6.4
2017-01-30T05:01:52.575Z,6.38
2017-01-30T05:02:33.046Z,6.55
2017-01-30T05:03:13.583Z,6.52
2017-01-30T05:03:54.034Z,6.48
2017-01-30T05:04:34.493Z,6.54
2017-01-30T05:05:14.987Z,6.49
2017-01-30T05:05:55.517Z,6.44
2017-01-30T05:06:36.011Z,6.44
2017-01-30T05:07:16.561Z,6.41
2017-01-30T05:07:57.066Z,6.37
2017-01-30T05:08:37.522Z,6.34
2017-01-30T05:09:18.031Z,6.43
2017-01-30T05:09:58.525Z,6.37
2017-01-30T05:10:38.995Z,6.31
2017-01-30T05:11:19.495Z,6.38
2017-01-30T05:11:59.968Z,6.33
2017-01-30T05:12:40.482Z,6.41
2017-01-30T05:13:20.963Z,6.28
2017-01-30T05:14:01.454Z,6.36
2017-01-30T05:14:41.943Z,6.3
2017-01-30T05:15:22.415Z,6.36
2017-01-30T05:16:02.955Z,6.43
2017-01-30T05:16:43.417Z,6.21
2017-01-30T05:17:23.900Z,6.34
2017-01-30T05:18:04.359Z,6.27
2017-01-30T05:18:44.855Z,6.34
2017-01-30T05:19:25.363Z,6.46
2017-01-30T05:20:05.862Z,6.44
2017-01-30T05:20:46.310Z,6.52
2017-01-30T05:21:26.755Z,6.49
2017-01-30T05:22:07.274Z,6.44
2017-01-30T05:22:47.776Z,6.49
2017-01-30T05:23:28.247Z,6.44
2017-01-30T05:24:08.762Z,6.37
2017-01-30T05:24:49.198Z,6.31
2017-01-30T05:25:29.704Z,6.37
2017-01-30T05:26:10.210Z,6.46
2017-01-30T05:26:50.671Z,6.58
2017-01-30T05:27:31.181Z,6.56
2017-01-30T05:28:11.661Z,6.54
2017-01-30T05:28:52.150Z,6.61
2017-01-30T05:29:32.705Z,6.49
2017-01-30T05:30:13.158Z,6.43
2017-01-30T05:30:53.665Z,6.46
2017-01-30T05:31:34.168Z,6.36
2017-01-30T05:32:14.592Z,6.41
2017-01-30T05:32:55.089Z,6.43
2017-01-30T05:33:35.573Z,6.4
2017-01-30T05:34:16.072Z,6.46
2017-01-30T05:34:56.529Z,6.43
2017-01-30T05:35:37.006Z,6.49
2017-01-30T05:36:17.539Z,6.38
2017-01-30T05:36:57.974Z,6.43
2017-01-30T05:37:38.465Z,6.48
2017-01-30T05:38:18.955Z,6.46
2017-01-30T05:38:59.445Z,6.52
2017-01-30T05:39:39.978Z,6.54
2017-01-30T05:40:20.491Z,6.4
2017-01-30T05:41:00.947Z,6.46
2017-01-30T05:41:41.411Z,6.44
2017-01-30T05:42:21.907Z,6.51
2017-01-30T05:43:02.394Z,6.3
2017-01-30T05:43:42.878Z,6.31
2017-01-30T05:44:23.366Z,6.4
2017-01-30T05:45:03.849Z,6.48
2017-01-30T05:45:44.324Z,6.37
2017-01-30T05:46:24.829Z,6.46
2017-01-30T05:47:05.287Z,6.36
2017-01-30T05:47:45.802Z,6.37
2017-01-30T05:48:26.257Z,6.41
2017-01-30T05:49:06.824Z,6.33
2017-01-30T05:49:47.272Z,6.36
2017-01-30T05:50:27.756Z,6.33
2017-01-30T05:51:08.263Z,6.46
2017-01-30T05:51:48.785Z,6.44
2017-01-30T05:52:29.229Z,6.48
2017-01-30T05:53:09.737Z,6.52
2017-01-30T05:53:50.269Z,6.44
2017-01-30T05:54:30.736Z,6.43
2017-01-30T05:55:11.218Z,6.43
2017-01-30T05:55:51.707Z,6.41
2017-01-30T05:56:32.187Z,6.44
2017-01-30T05:57:12.697Z,6.37
2017-01-30T05:57:53.231Z,6.43
2017-01-30T05:58:33.711Z,6.55
2017-01-30T05:59:14.202Z,6.61
2017-01-30T05:59:54.685Z,6.66
2017-01-30T06:00:35.222Z,6.71
2017-01-30T06:01:15.677Z,6.64
2017-01-30T06:01:56.167Z,6.66
2017-01-30T06:02:36.640Z,6.67
2017-01-30T06:03:17.167Z,6.67
2017-01-30T06:03:57.659Z,6.66
2017-01-30T06:04:38.127Z,6.7
2017-01-30T06:05:18.662Z,6.64
2017-01-30T06:05:59.140Z,6.64
2017-01-30T06:06:39.690Z,6.61
2017-01-30T06:07:20.235Z,6.62
2017-01-30T06:08:00.729Z,6.59
2017-01-30T06:08:41.216Z,6.66
2017-01-30T06:09:21.756Z,6.7
2017-01-30T06:10:02.161Z,6.81
2017-01-30T06:10:42.689Z,6.8
2017-01-30T06:11:23.227Z,6.79
2017-01-30T06:12:03.726Z,6.81
2017-01-30T06:12:44.204Z,6.88
2017-01-30T06:13:25.529Z,6.87
2017-01-30T06:14:05.173Z,6.85
2017-01-30T06:14:45.649Z,6.92
2017-01-30T06:15:26.886Z,6.87
2017-01-30T06:16:07.467Z,6.77
2017-01-30T06:16:47.974Z,6.8
2017-01-30T06:17:28.477Z,6.88
2017-01-30T06:18:12.848Z,6.81
2017-01-30T06:18:53.331Z,6.97
2017-01-30T06:19:33.853Z,6.92
2017-01-30T06:20:14.353Z,6.77
2017-01-30T06:20:54.840Z,6.84
2017-01-30T06:21:35.320Z,6.88
2017-01-30T06:22:15.833Z,6.91
2017-01-30T06:22:56.274Z,6.92
2017-01-30T06:23:36.769Z,6.87
2017-01-30T06:24:17.303Z,6.87
2017-01-30T06:24:57.772Z,6.88
2017-01-30T06:25:38.272Z,6.81
2017-01-30T06:26:18.771Z,6.94
2017-01-30T06:26:59.396Z,6.95
2017-01-30T06:27:39.886Z,6.98
2017-01-30T06:28:20.425Z,6.92
2017-01-30T06:29:00.881Z,6.84
2017-01-30T06:29:41.417Z,6.97
2017-01-30T06:30:21.968Z,6.99
2017-01-30T06:31:02.485Z,6.88
2017-01-30T06:31:43.052Z,6.88
2017-01-30T06:33:12.368Z,6.98
2017-01-30T06:33:52.859Z,7.06
2017-01-30T06:34:33.369Z,6.97
2017-01-30T06:35:13.889Z,6.95
2017-01-30T06:35:55.374Z,6.91
2017-01-30T06:36:35.973Z,6.95
2017-01-30T06:37:16.661Z,6.97
2017-01-30T06:37:57.164Z,6.89
2017-01-30T06:38:37.664Z,7.05
2017-01-30T06:39:18.554Z,7.05
2017-01-30T06:39:58.998Z,7.1
2017-01-30T06:40:39.473Z,7.13
2017-01-30T06:41:20.189Z,7.17
2017-01-30T06:42:00.744Z,7.27
2017-01-30T06:42:41.219Z,7.2
2017-01-30T06:43:22.043Z,7.02
2017-01-30T06:44:02.595Z,7.07
2017-01-30T06:44:43.119Z,7.05
2017-01-30T06:45:23.628Z,7.07
2017-01-30T06:46:04.084Z,7.03
2017-01-30T06:47:59.681Z,7.09
2017-01-30T06:48:40.020Z,6.94
2017-01-30T06:49:20.540Z,6.99
2017-01-30T06:50:01.035Z,7.12
2017-01-30T06:50:41.541Z,7.1
2017-01-30T06:51:22.052Z,7.09
2017-01-30T06:52:02.549Z,7.09
2017-01-30T06:52:43.040Z,7.12
2017-01-30T06:53:23.537Z,7.13
2017-01-30T06:54:03.986Z,7.05
2017-01-30T06:54:44.555Z,7.09
2017-01-30T06:55:25.030Z,7.12
2017-01-30T06:56:05.601Z,7.09
2017-01-30T06:56:46.151Z,7.13
2017-01-30T06:57:26.665Z,7.12
2017-01-30T06:58:07.174Z,7.15
2017-01-30T06:58:48.378Z,7.13
2017-01-30T06:59:28.399Z,7.15
2017-01-30T07:00:08.674Z,7.17
2017-01-30T07:00:49.205Z,7.3
2017-01-30T07:01:29.659Z,7.3
2017-01-30T07:02:10.123Z,7.27
2017-01-30T07:02:50.647Z,7.32
2017-01-30T07:03:31.116Z,7.37
2017-01-30T07:04:11.594Z,7.39
2017-01-30T07:04:52.049Z,7.42
2017-01-30T07:05:32.616Z,7.28
2017-01-30T07:06:13.682Z,7.31
2017-01-30T07:06:54.273Z,7.42
2017-01-30T07:07:34.618Z,7.4
2017-01-30T07:08:15.074Z,7.46
2017-01-30T07:08:55.628Z,7.43
2017-01-30T07:09:36.144Z,7.43
2017-01-30T07:10:16.670Z,7.43
2017-01-30T07:10:57.117Z,7.43
2017-01-30T07:11:37.510Z,7.37
2017-01-30T07:12:18.026Z,7.4
2017-01-30T07:12:58.539Z,7.42
2017-01-30T07:13:39.028Z,7.39
2017-01-30T07:14:19.524Z,7.49
2017-01-30T07:15:00.006Z,7.53
2017-01-30T07:15:40.489Z,7.58
2017-01-30T07:16:21.040Z,7.55
2017-01-30T07:17:01.556Z,7.68
2017-01-30T07:17:42.019Z,7.92
2017-01-30T07:18:22.507Z,7.93
2017-01-30T07:19:03.161Z,7.9
2017-01-30T07:19:43.542Z,7.68
2017-01-30T07:20:23.997Z,7.61
2017-01-30T07:21:04.464Z,7.72
2017-01-30T07:21:45.002Z,7.85
2017-01-30T07:22:25.469Z,7.67
2017-01-30T07:23:05.966Z,7.64
2017-01-30T07:23:46.565Z,7.67
2017-01-30T07:24:29.626Z,7.5
2017-01-30T07:25:10.057Z,7.55
2017-01-30T07:25:50.557Z,7.52
2017-01-30T07:26:31.125Z,7.63
2017-01-30T07:27:11.671Z,7.64
2017-01-30T07:27:52.230Z,7.61
2017-01-30T07:28:32.880Z,7.71
2017-01-30T07:29:13.346Z,7.71
2017-01-30T07:29:54.195Z,7.74
2017-01-30T07:30:34.714Z,7.69
2017-01-30T07:31:17.720Z,7.82
2017-01-30T07:31:58.172Z,7.89
2017-01-30T07:32:38.725Z,7.85
2017-01-30T07:33:19.214Z,7.82
2017-01-30T07:34:00.067Z,7.79
2017-01-30T07:34:40.536Z,7.9
2017-01-30T07:35:21.071Z,7.86
2017-01-30T07:36:01.529Z,7.95
2017-01-30T07:36:42.052Z,7.92
2017-01-30T07:37:22.509Z,7.89
2017-01-30T07:38:03.029Z,7.92
2017-01-30T07:38:43.506Z,7.82
2017-01-30T07:39:23.977Z,7.95
2017-01-30T07:40:04.448Z,7.85
2017-01-30T07:40:44.971Z,7.9
2017-01-30T07:41:25.581Z,7.89
2017-01-30T07:42:06.030Z,7.77
2017-01-30T07:42:46.513Z,7.77
2017-01-30T07:43:27.032Z,7.9
2017-01-30T07:44:07.513Z,7.83
2017-01-30T07:44:48.033Z,7.85
2017-01-30T07:45:28.471Z,7.93
2017-01-30T07:46:08.956Z,7.69
2017-01-30T07:46:49.459Z,7.67
2017-01-30T07:47:29.949Z,7.74
2017-01-30T07:48:10.464Z,7.82
2017-01-30T07:48:50.932Z,7.87
2017-01-30T07:49:31.407Z,7.89
2017-01-30T07:50:11.881Z,8.02
2017-01-30T07:50:52.365Z,8.05
2017-01-30T07:51:32.863Z,8.1
2017-01-30T07:52:13.326Z,8.18
2017-01-30T07:52:53.807Z,8.11
2017-01-30T07:53:34.286Z,8.07
2017-01-30T07:54:14.771Z,8.08
2017-01-30T07:54:55.259Z,8
2017-01-30T07:55:35.743Z,7.75
2017-01-30T07:56:16.238Z,7.79
2017-01-30T07:56:56.736Z,7.67
2017-01-30T07:57:37.241Z,7.69
2017-01-30T07:58:17.647Z,7.72
2017-01-30T07:58:58.154Z,7.85
2017-01-30T07:59:38.644Z,7.89
2017-01-30T08:00:19.153Z,8.07
2017-01-30T08:00:59.653Z,8.05
2017-01-30T08:01:40.151Z,8.1
2017-01-30T08:02:20.662Z,8.05
2017-01-30T08:03:01.159Z,8.05
2017-01-30T08:03:41.629Z,8.12
2017-01-30T08:04:22.126Z,8.08
2017-01-30T08:05:02.589Z,8.23
2017-01-30T08:05:43.034Z,8.33
2017-01-30T08:06:23.534Z,8.74
2017-01-30T08:07:04.030Z,8.68
2017-01-30T08:07:44.499Z,8.58
2017-01-30T08:08:25.007Z,8.37
2017-01-30T08:09:05.459Z,8.5
2017-01-30T08:09:45.949Z,8.45
2017-01-30T08:10:26.435Z,8.38
2017-01-30T08:11:06.999Z,8.47
2017-01-30T08:11:47.511Z,8.41
2017-01-30T08:12:27.986Z,8.38
2017-01-30T08:13:08.487Z,8.38
2017-01-30T08:13:48.974Z,8.41
2017-01-30T08:14:29.459Z,8.36
2017-01-30T08:15:10.325Z,8.4
2017-01-30T08:15:50.786Z,8.34
2017-01-30T08:16:31.333Z,8.34
2017-01-30T08:17:11.777Z,8.3
2017-01-30T08:17:52.232Z,8.26
2017-01-30T08:18:32.785Z,8.34
2017-01-30T08:19:13.294Z,8.22
2017-01-30T08:19:53.800Z,8.23
2017-01-30T08:20:34.275Z,8.26
2017-01-30T08:21:14.741Z,8.36
2017-01-30T08:21:55.268Z,8.4
2017-01-30T08:22:35.732Z,8.33
2017-01-30T08:23:16.246Z,8.22
2017-01-30T08:23:56.747Z,8.29
2017-01-30T08:24:37.255Z,8.29
2017-01-30T08:25:17.798Z,8.34
2017-01-30T08:25:58.250Z,8.29
2017-01-30T08:26:38.709Z,8.34
2017-01-30T08:27:19.235Z,8.34
2017-01-30T08:27:59.796Z,8.19
2017-01-30T08:28:40.245Z,8.2
2017-01-30T08:29:20.763Z,8.19
2017-01-30T08:30:01.232Z,8.25
2017-01-30T08:30:41.735Z,8.29
2017-01-30T08:31:22.198Z,8.38
2017-01-30T08:32:02.688Z,8.26
2017-01-30T08:32:43.201Z,8.26
2017-01-30T08:33:23.688Z,8.3
2017-01-30T08:34:04.195Z,8.37
2017-01-30T08:34:44.671Z,8.47
2017-01-30T08:35:25.156Z,8.47
2017-01-30T08:36:05.647Z,8.48
2017-01-30T08:36:46.167Z,8.5
2017-01-30T08:37:26.620Z,8.44
2017-01-30T08:38:07.124Z,8.47
2017-01-30T08:38:47.606Z,8.4
2017-01-30T08:39:28.148Z,8.4
2017-01-30T08:40:08.638Z,8.56
2017-01-30T08:40:49.121Z,8.62
2017-01-30T08:41:29.592Z,8.59
2017-01-30T08:42:10.077Z,8.73
2017-01-30T08:42:50.566Z,8.71
2017-01-30T08:43:31.064Z,8.8
2017-01-30T08:44:11.599Z,8.91
2017-01-30T08:44:52.082Z,8.83
2017-01-30T08:45:32.521Z,8.92
2017-01-30T08:46:13.046Z,8.96
2017-01-30T08:46:53.496Z,8.98
2017-01-30T08:47:34.007Z,9.01
2017-01-30T08:48:14.494Z,9.05
2017-01-30T08:48:54.995Z,8.92
2017-01-30T08:49:35.533Z,8.81
2017-01-30T08:50:16.004Z,8.86
2017-01-30T08:50:56.484Z,8.74
2017-01-30T08:51:36.953Z,8.79
2017-01-30T08:52:17.457Z,8.81
2017-01-30T08:52:57.955Z,8.86
2017-01-30T08:53:38.464Z,8.79
2017-01-30T08:54:19.010Z,8.79
2017-01-30T08:54:59.507Z,8.73
2017-01-30T08:55:40.002Z,8.77
2017-01-30T08:56:20.468Z,8.91
2017-01-30T08:57:00.952Z,8.79
2017-01-30T08:57:41.475Z,8.66
2017-01-30T08:58:21.964Z,8.84
2017-01-30T08:59:02.411Z,8.8
2017-01-30T08:59:42.931Z,8.91
2017-01-30T09:00:23.457Z,8.92
2017-01-30T09:01:03.952Z,8.94
2017-01-30T09:01:44.436Z,8.84
2017-01-30T09:02:24.942Z,8.83
2017-01-30T09:03:05.438Z,8.83
2017-01-30T09:03:45.942Z,8.83
2017-01-30T09:04:26.431Z,8.77
2017-01-30T09:05:06.930Z,8.79
2017-01-30T09:05:47.448Z,8.79